Time,TemperatureF,DewpointF,PressureIn,WindDirection,WindDirectionDegrees,WindSpeedMPH,WindSpeedGustMPH,Humidity,HourlyPrecipIn,Conditions,Clouds,dailyrainin,SolarRadiationWatts/m^2,SoftwareType,DateUTC
2013-02-19 00:01:00,20.0,3.0,-100.00,ENE,73,10.0,11.0,45,-99.99,,,-99.99,0.000000,,2013-02-19 07:01:00,
2013-02-19 00:32:00,20.0,2.0,-100.00,ENE,76,8.0,10.0,43,-99.99,,,-99.99,0.000000,,2013-02-19 07:32:00,
2013-02-19 00:42:00,20.0,2.0,-100.00,ENE,76,8.0,10.0,43,-99.99,,,-99.99,0.000000,,2013-02-19 07:42:00,
2013-02-19 00:51:00,21.0,2.0,-100.00,East,83,10.0,12.0,41,-99.99,,,-99.99,0.000000,,2013-02-19 07:51:00,
2013-02-19 01:01:00,19.0,4.0,-100.00,ENE,71,10.0,13.0,50,-99.99,,,-99.99,0.000000,,2013-02-19 08:01:00,
2013-02-19 01:21:00,20.0,3.0,-100.00,ENE,64,11.0,14.0,46,-99.99,,,-99.99,0.000000,,2013-02-19 08:21:00,
2013-02-19 01:31:00,20.0,3.0,-100.00,ENE,62,10.0,12.0,46,-99.99,,,-99.99,0.000000,,2013-02-19 08:31:00,
2013-02-19 01:52:00,21.0,2.0,-100.00,ENE,74,12.0,15.0,43,-99.99,,,-99.99,0.000000,,2013-02-19 08:52:00,
2013-02-19 02:11:00,22.0,2.0,-100.00,NE,55,16.0,16.0,41,-99.99,,,-99.99,0.000000,,2013-02-19 09:11:00,
2013-02-19 02:41:00,21.0,3.0,-100.00,East,79,8.0,15.0,44,-99.99,,,-99.99,0.000000,,2013-02-19 09:41:00,
2013-02-19 03:01:00,20.0,3.0,-100.00,ENE,72,10.0,13.0,47,-99.99,,,-99.99,0.000000,,2013-02-19 10:01:00,
2013-02-19 03:11:00,22.0,3.0,-100.00,ENE,58,14.0,15.0,43,-99.99,,,-99.99,0.000000,,2013-02-19 10:11:00,
2013-02-19 03:21:00,22.0,3.0,-100.00,ENE,58,14.0,15.0,43,-99.99,,,-99.99,0.000000,,2013-02-19 10:21:00,
2013-02-19 03:31:00,22.0,2.0,-100.00,NE,52,16.0,17.0,41,-99.99,,,-99.99,0.000000,,2013-02-19 10:31:00,
2013-02-19 03:41:00,21.0,3.0,-100.00,ENE,63,14.0,18.0,45,-99.99,,,-99.99,0.000000,,2013-02-19 10:41:00,
2013-02-19 04:01:00,22.0,2.0,-100.00,NE,48,15.0,15.0,41,-99.99,,,-99.99,0.000000,,2013-02-19 11:01:00,
2013-02-19 04:11:00,22.0,2.0,-100.00,NE,51,15.0,18.0,42,-99.99,,,-99.99,0.000000,,2013-02-19 11:11:00,
2013-02-19 04:31:00,23.0,2.0,-100.00,NE,52,15.0,16.0,40,-99.99,,,-99.99,0.000000,,2013-02-19 11:31:00,
2013-02-19 04:51:00,22.0,2.0,-100.00,East,82,8.0,16.0,41,-99.99,,,-99.99,0.000000,,2013-02-19 11:51:00,
2013-02-19 05:01:00,22.0,2.0,-100.00,ENE,73,9.0,14.0,40,-99.99,,,-99.99,0.000000,,2013-02-19 12:01:00,
2013-02-19 05:21:00,23.0,3.0,-100.00,ENE,60,11.0,16.0,41,-99.99,,,-99.99,0.000000,,2013-02-19 12:21:00,
2013-02-19 05:32:00,23.0,3.0,-100.00,ENE,60,11.0,16.0,41,-99.99,,,-99.99,0.000000,,2013-02-19 12:32:00,
2013-02-19 05:42:00,22.0,3.0,-100.00,ENE,67,12.0,15.0,43,-99.99,,,-99.99,0.000000,,2013-02-19 12:42:00,
2013-02-19 05:52:00,24.0,3.0,-100.00,ENE,59,15.0,17.0,39,-99.99,,,-99.99,0.000000,,2013-02-19 12:52:00,
2013-02-19 08:31:00,26.0,1.0,-100.00,NE,44,12.0,16.0,33,-99.99,,,-99.99,53.209999,,2013-02-19 15:31:00,
2013-02-19 08:42:00,26.0,2.0,-100.00,NE,54,9.0,15.0,34,-99.99,,,-99.99,76.870003,,2013-02-19 15:42:00,
2013-02-19 09:41:00,29.0,3.0,-100.00,NE,47,16.0,18.0,32,-99.99,,,-99.99,239.899994,,2013-02-19 16:41:00,
2013-02-19 09:51:00,30.0,4.0,-100.00,NE,53,16.0,18.0,32,-99.99,,,-99.99,439.000000,,2013-02-19 16:51:00,
2013-02-19 10:01:00,30.0,4.0,-100.00,NE,53,16.0,18.0,32,-99.99,,,-99.99,439.000000,,2013-02-19 17:01:00,
2013-02-19 10:21:00,31.0,5.0,-100.00,ENE,64,14.0,17.0,32,-99.99,,,-99.99,542.299988,,2013-02-19 17:21:00,
2013-02-19 10:31:00,31.0,5.0,-100.00,ENE,64,14.0,17.0,32,-99.99,,,-99.99,542.299988,,2013-02-19 17:31:00,
2013-02-19 10:41:00,31.0,6.0,-100.00,ENE,65,15.0,17.0,34,-99.99,,,-99.99,587.700012,,2013-02-19 17:41:00,
2013-02-19 10:51:00,32.0,5.0,-100.00,ENE,59,15.0,17.0,31,-99.99,,,-99.99,594.700012,,2013-02-19 17:51:00,
2013-02-19 11:01:00,32.0,5.0,-100.00,ENE,59,15.0,17.0,31,-99.99,,,-99.99,594.700012,,2013-02-19 18:01:00,
2013-02-19 11:21:00,32.0,6.0,-100.00,ENE,57,12.0,17.0,32,-99.99,,,-99.99,603.599976,,2013-02-19 18:21:00,
2013-02-19 11:31:00,32.0,6.0,-100.00,ENE,62,10.0,18.0,32,-99.99,,,-99.99,620.799988,,2013-02-19 18:31:00,
2013-02-19 11:41:00,33.0,7.0,-100.00,ENE,63,15.0,18.0,33,-99.99,,,-99.99,664.500000,,2013-02-19 18:41:00,
2013-02-19 11:51:00,34.0,5.0,-100.00,ENE,59,11.0,19.0,29,-99.99,,,-99.99,673.599976,,2013-02-19 18:51:00,
2013-02-19 12:01:00,33.0,7.0,-100.00,ENE,62,13.0,19.0,33,-99.99,,,-99.99,682.500000,,2013-02-19 19:01:00,
2013-02-19 12:11:00,33.0,10.0,-100.00,ENE,64,14.0,21.0,37,-99.99,,,-99.99,690.400024,,2013-02-19 19:11:00,
2013-02-19 12:21:00,33.0,10.0,-100.00,ENE,64,14.0,21.0,37,-99.99,,,-99.99,690.400024,,2013-02-19 19:21:00,
2013-02-19 12:31:00,33.0,7.0,-100.00,ENE,67,13.0,23.0,31,-99.99,,,-99.99,697.400024,,2013-02-19 19:31:00,
2013-02-19 12:41:00,34.0,8.0,-100.00,ENE,68,15.0,20.0,33,-99.99,,,-99.99,705.000000,,2013-02-19 19:41:00,
2013-02-19 12:51:00,35.0,5.0,-100.00,ENE,67,11.0,18.0,28,-99.99,,,-99.99,717.099976,,2013-02-19 19:51:00,
2013-02-19 13:01:00,35.0,5.0,-100.00,ENE,67,11.0,18.0,28,-99.99,,,-99.99,717.099976,,2013-02-19 20:01:00,
2013-02-19 13:11:00,36.0,10.0,-100.00,ENE,66,17.0,20.0,33,-99.99,,,-99.99,727.000000,,2013-02-19 20:11:00,
2013-02-19 13:21:00,37.0,6.0,-100.00,ENE,58,12.0,19.0,26,-99.99,,,-99.99,728.200012,,2013-02-19 20:21:00,
2013-02-19 13:31:00,37.0,6.0,-100.00,ENE,58,12.0,19.0,26,-99.99,,,-99.99,728.200012,,2013-02-19 20:31:00,
2013-02-19 13:41:00,39.0,4.0,-100.00,East,92,5.0,20.0,23,-99.99,,,-99.99,733.400024,,2013-02-19 20:41:00,
2013-02-19 13:52:00,39.0,4.0,-100.00,East,92,5.0,20.0,23,-99.99,,,-99.99,733.400024,,2013-02-19 20:52:00,
2013-02-19 14:01:00,43.0,0.0,-100.00,SSW,195,3.0,12.0,16,-99.99,,,-99.99,708.799988,,2013-02-19 21:01:00,
2013-02-19 14:11:00,42.0,0.0,-100.00,East,86,1.0,9.0,16,-99.99,,,-99.99,705.799988,,2013-02-19 21:11:00,
2013-02-19 14:21:00,42.0,0.0,-100.00,East,86,1.0,9.0,16,-99.99,,,-99.99,705.799988,,2013-02-19 21:21:00,
2013-02-19 14:31:00,42.0,0.0,-100.00,WSW,252,6.0,9.0,16,-99.99,,,-99.99,691.599976,,2013-02-19 21:31:00,
2013-02-19 14:42:00,41.0,5.0,-100.00,WSW,246,12.0,18.0,21,-99.99,,,-99.99,644.000000,,2013-02-19 21:42:00,
2013-02-19 15:01:00,40.0,5.0,-100.00,WNW,287,8.0,21.0,22,-99.99,,,-99.99,462.899994,,2013-02-19 22:01:00,
2013-02-19 15:11:00,39.0,4.0,-100.00,West,266,6.0,14.0,21,-99.99,,,-99.99,354.100006,,2013-02-19 22:11:00,
2013-02-19 15:21:00,39.0,4.0,-100.00,West,266,6.0,14.0,21,-99.99,,,-99.99,354.100006,,2013-02-19 22:21:00,
2013-02-19 15:41:00,39.0,5.0,-100.00,NE,52,5.0,13.0,23,-99.99,,,-99.99,275.000000,,2013-02-19 22:41:00,
2013-02-19 15:51:00,37.0,8.0,-100.00,ENE,72,11.0,14.0,29,-99.99,,,-99.99,244.100006,,2013-02-19 22:51:00,
2013-02-19 16:11:00,37.0,7.0,-100.00,ENE,58,8.0,14.0,27,-99.99,,,-99.99,224.399994,,2013-02-19 23:11:00,
2013-02-19 16:31:00,37.0,7.0,-100.00,East,81,4.0,14.0,27,-99.99,,,-99.99,166.100006,,2013-02-19 23:31:00,
2013-02-19 16:41:00,37.0,7.0,-100.00,East,81,4.0,14.0,27,-99.99,,,-99.99,166.100006,,2013-02-19 23:41:00,
2013-02-19 16:51:00,37.0,7.0,-100.00,ENE,61,2.0,7.0,28,-99.99,,,-99.99,136.399994,,2013-02-19 23:51:00,
2013-02-19 17:01:00,37.0,7.0,-100.00,East,96,2.0,6.0,28,-99.99,,,-99.99,131.899994,,2013-02-20 00:01:00,
2013-02-19 17:11:00,37.0,7.0,-100.00,ENE,63,1.0,6.0,28,-99.99,,,-99.99,123.599998,,2013-02-20 00:11:00,
2013-02-19 17:21:00,37.0,6.0,-100.00,NE,43,2.0,7.0,27,-99.99,,,-99.99,93.500000,,2013-02-20 00:21:00,
2013-02-19 17:31:00,36.0,7.0,-100.00,ENE,77,3.0,6.0,28,-99.99,,,-99.99,72.660004,,2013-02-20 00:31:00,
2013-02-19 17:41:00,36.0,7.0,-100.00,ENE,77,3.0,6.0,28,-99.99,,,-99.99,72.660004,,2013-02-20 00:41:00,
2013-02-19 17:51:00,33.0,11.0,-100.00,ENE,59,11.0,17.0,39,-99.99,,,-99.99,48.299999,,2013-02-20 00:51:00,
2013-02-19 18:02:00,33.0,11.0,-100.00,ENE,59,11.0,17.0,39,-99.99,,,-99.99,48.299999,,2013-02-20 01:02:00,
2013-02-19 18:11:00,33.0,10.0,-100.00,ENE,61,12.0,17.0,37,-99.99,,,-99.99,21.570000,,2013-02-20 01:11:00,
2013-02-19 18:21:00,32.0,10.0,-100.00,ENE,59,11.0,18.0,37,-99.99,,,-99.99,7.160000,,2013-02-20 01:21:00,
2013-02-19 18:31:00,32.0,10.0,-100.00,ENE,59,11.0,18.0,37,-99.99,,,-99.99,7.160000,,2013-02-20 01:31:00,
2013-02-19 18:41:00,32.0,11.0,-100.00,ENE,64,12.0,16.0,40,-99.99,,,-99.99,2.570000,,2013-02-20 01:41:00,
2013-02-19 19:01:00,31.0,10.0,-100.00,ENE,64,10.0,15.0,42,-99.99,,,-99.99,0.180000,,2013-02-20 02:01:00,
2013-02-19 19:11:00,31.0,10.0,-100.00,ENE,64,10.0,15.0,42,-99.99,,,-99.99,0.180000,,2013-02-20 02:11:00,
2013-02-19 19:21:00,30.0,12.0,-100.00,ENE,73,8.0,12.0,46,-99.99,,,-99.99,0.180000,,2013-02-20 02:21:00,
2013-02-19 19:41:00,30.0,10.0,-100.00,ENE,63,7.0,11.0,43,-99.99,,,-99.99,0.150000,,2013-02-20 02:41:00,
2013-02-19 20:01:00,29.0,10.0,-100.00,ENE,60,11.0,13.0,43,-99.99,,,-99.99,0.030000,,2013-02-20 03:01:00,
2013-02-19 20:21:00,29.0,9.0,-100.00,ENE,66,10.0,14.0,43,-99.99,,,-99.99,0.030000,,2013-02-20 03:21:00,
2013-02-19 20:41:00,28.0,10.0,-100.00,ENE,62,10.0,16.0,46,-99.99,,,-99.99,0.040000,,2013-02-20 03:41:00,
2013-02-19 21:01:00,27.0,10.0,-100.00,ENE,67,9.0,13.0,46,-99.99,,,-99.99,0.010000,,2013-02-20 04:01:00,
2013-02-19 21:11:00,27.0,10.0,-100.00,ENE,67,9.0,13.0,46,-99.99,,,-99.99,0.010000,,2013-02-20 04:11:00,
2013-02-19 21:21:00,27.0,8.0,-100.00,ENE,60,5.0,11.0,44,-99.99,,,-99.99,0.010000,,2013-02-20 04:21:00,
2013-02-19 21:31:00,27.0,8.0,-100.00,ENE,60,5.0,11.0,44,-99.99,,,-99.99,0.010000,,2013-02-20 04:31:00,
2013-02-19 21:41:00,27.0,11.0,-100.00,ENE,61,8.0,10.0,50,-99.99,,,-99.99,0.000000,,2013-02-20 04:41:00,
2013-02-19 22:22:00,27.0,8.0,-100.00,ENE,68,8.0,11.0,43,-99.99,,,-99.99,0.000000,,2013-02-20 05:22:00,
2013-02-19 22:31:00,27.0,8.0,-100.00,ENE,68,8.0,11.0,43,-99.99,,,-99.99,0.000000,,2013-02-20 05:31:00,
2013-02-19 22:42:00,26.0,10.0,-100.00,ENE,66,6.0,9.0,50,-99.99,,,-99.99,0.000000,,2013-02-20 05:42:00,
2013-02-19 23:01:00,27.0,10.0,-100.00,ENE,60,8.0,10.0,49,-99.99,,,-99.99,0.010000,,2013-02-20 06:01:00,
2013-02-19 23:21:00,26.0,8.0,-100.00,East,82,5.0,9.0,47,-99.99,,,-99.99,0.000000,,2013-02-20 06:21:00,